createdAt,value
2019-01-09T00:03:33.314Z,0.70
2019-01-09T00:08:51.770Z,0.60
2019-01-09T00:14:10.794Z,0.70
2019-01-09T00:19:30.476Z,0.60
2019-01-09T00:24:48.611Z,0.67
2019-01-09T00:30:07.005Z,0.63
2019-01-09T00:35:25.490Z,0.87
2019-01-09T00:40:48.046Z,0.73
2019-01-09T00:46:06.841Z,0.73
2019-01-09T00:51:25.618Z,0.60
2019-01-09T00:56:44.225Z,0.57
2019-01-09T01:02:52.305Z,0.70
2019-01-09T01:08:43.219Z,0.67
2019-01-09T01:14:23.666Z,0.67
2019-01-09T01:20:29.599Z,0.53
2019-01-09T01:26:25.467Z,0.63
2019-01-09T01:32:31.247Z,0.53
2019-01-09T01:38:27.734Z,0.67
2019-01-09T01:44:04.772Z,0.53
2019-01-09T01:49:57.493Z,0.67
2019-01-09T01:55:59.703Z,0.63
2019-01-09T02:01:54.510Z,0.50
2019-01-09T02:08:07.419Z,0.63
2019-01-09T02:13:53.932Z,0.50
2019-01-09T02:19:35.158Z,0.63
2019-01-09T02:25:47.636Z,0.63
2019-01-09T02:31:35.128Z,0.57
2019-01-09T02:36:55.275Z,0.60
2019-01-09T02:42:13.660Z,0.57
2019-01-09T02:47:32.822Z,0.60
2019-01-09T02:52:51.228Z,0.47
2019-01-09T02:58:11.663Z,0.67
2019-01-09T03:03:30.946Z,0.63
2019-01-09T03:08:50.122Z,0.63
2019-01-09T03:14:09.430Z,0.63
2019-01-09T03:19:27.500Z,0.63
2019-01-09T03:24:46.084Z,0.60
2019-01-09T03:30:05.282Z,0.67
2019-01-09T03:35:24.233Z,0.73
2019-01-09T03:40:44.571Z,0.73
2019-01-09T03:46:01.836Z,0.67
2019-01-09T03:51:20.982Z,0.50
2019-01-09T03:56:40.134Z,0.50
2019-01-09T04:01:58.381Z,0.70
2019-01-09T04:07:18.049Z,0.73
2019-01-09T04:12:36.294Z,0.57
2019-01-09T04:17:55.635Z,0.80
2019-01-09T04:23:14.543Z,0.67
2019-01-09T04:28:33.063Z,0.73
2019-01-09T04:33:52.438Z,0.67
2019-01-09T04:39:11.827Z,0.70
2019-01-09T04:44:30.731Z,0.67
2019-01-09T04:49:50.054Z,0.73
2019-01-09T04:55:09.567Z,0.63
2019-01-09T05:00:27.993Z,0.77
2019-01-09T05:05:46.892Z,0.67
2019-01-09T05:11:05.665Z,0.73
2019-01-09T05:16:24.324Z,0.57
2019-01-09T05:21:42.636Z,0.53
2019-01-09T05:27:00.814Z,0.70
2019-01-09T05:32:20.221Z,0.67
2019-01-09T05:37:38.766Z,0.63
2019-01-09T05:42:58.408Z,0.63
2019-01-09T05:48:17.519Z,0.77
2019-01-09T05:53:36.659Z,0.67
2019-01-09T05:58:56.093Z,0.63
2019-01-09T06:04:13.853Z,0.47
2019-01-09T06:09:32.914Z,0.63
2019-01-09T06:14:53.116Z,0.63
2019-01-09T06:20:11.400Z,0.63
2019-01-09T06:25:29.633Z,0.57
2019-01-09T06:30:48.286Z,0.73
2019-01-09T06:36:07.404Z,0.63
2019-01-09T06:41:25.762Z,0.57
2019-01-09T06:46:44.618Z,0.63
2019-01-09T06:52:03.281Z,0.60
2019-01-09T06:57:22.137Z,0.63
2019-01-09T07:02:41.181Z,0.53
2019-01-09T07:07:59.870Z,0.57
2019-01-09T07:13:19.161Z,0.63
2019-01-09T07:18:38.333Z,0.57
2019-01-09T07:23:57.645Z,0.47
2019-01-09T07:29:15.793Z,0.67
2019-01-09T07:34:34.691Z,0.53
2019-01-09T07:39:53.732Z,0.47
2019-01-09T07:45:12.334Z,0.63
2019-01-09T07:50:31.372Z,0.60
2019-01-09T07:55:49.660Z,0.47
2019-01-09T08:01:09.549Z,0.50
2019-01-09T08:06:28.578Z,0.53
2019-01-09T08:11:47.774Z,0.73
2019-01-09T08:17:06.569Z,0.57
2019-01-09T08:22:25.706Z,0.57
2019-01-09T08:27:44.490Z,0.57
2019-01-09T08:33:03.690Z,0.47
2019-01-09T08:38:22.480Z,0.63
2019-01-09T08:43:41.273Z,0.60
2019-01-09T08:49:00.911Z,0.57
2019-01-09T08:54:19.649Z,0.60
2019-01-09T08:59:38.992Z,0.60
2019-01-09T09:04:58.783Z,0.60
2019-01-09T09:10:17.710Z,0.70
2019-01-09T09:15:37.194Z,0.60
2019-01-09T09:20:56.438Z,0.63
2019-01-09T09:26:15.852Z,0.67
2019-01-09T09:31:35.432Z,0.57
2019-01-09T09:36:54.704Z,0.67
2019-01-09T09:42:13.569Z,0.50
2019-01-09T09:47:32.616Z,0.73
2019-01-09T09:52:51.019Z,0.73
2019-01-09T09:58:09.369Z,0.57
2019-01-09T10:03:27.614Z,0.57
2019-01-09T10:08:46.304Z,0.63
2019-01-09T10:14:04.957Z,0.67
2019-01-09T10:19:23.998Z,0.67
2019-01-09T10:24:44.158Z,0.63
2019-01-09T10:30:02.974Z,0.60
2019-01-09T10:35:21.755Z,0.53
2019-01-09T10:40:40.613Z,0.67
2019-01-09T10:46:00.168Z,0.63
2019-01-09T10:51:18.778Z,0.57
2019-01-09T10:56:38.196Z,0.67
2019-01-09T11:01:57.608Z,0.57
2019-01-09T11:07:15.878Z,0.63
2019-01-09T11:12:34.747Z,0.63
2019-01-09T11:17:53.324Z,0.67
2019-01-09T11:23:12.226Z,0.63
2019-01-09T11:28:30.359Z,0.60
2019-01-09T11:33:48.858Z,0.67
2019-01-09T11:39:09.407Z,0.60
2019-01-09T11:44:29.477Z,0.70
2019-01-09T11:49:48.315Z,0.67
2019-01-09T11:55:09.350Z,0.63
2019-01-09T12:00:29.759Z,0.60
2019-01-09T12:05:49.837Z,0.53
2019-01-09T12:11:08.693Z,0.73
2019-01-09T12:16:29.344Z,0.73
2019-01-09T12:21:47.993Z,0.70
2019-01-09T12:27:07.105Z,0.63
2019-01-09T12:32:26.261Z,0.63
2019-01-09T12:37:44.507Z,0.60
2019-01-09T12:43:03.185Z,0.60
2019-01-09T12:48:22.687Z,0.63
2019-01-09T12:53:41.651Z,0.63
2019-01-09T12:59:00.517Z,0.63
2019-01-09T13:04:18.655Z,0.60
2019-01-09T13:09:40.582Z,0.67
2019-01-09T13:14:59.391Z,0.67
2019-01-09T13:20:20.714Z,0.67
2019-01-09T13:25:39.091Z,0.63
2019-01-09T13:30:58.845Z,0.50
2019-01-09T13:36:17.007Z,0.60
2019-01-09T13:41:38.939Z,0.63
2019-01-09T13:46:57.527Z,0.60
2019-01-09T13:52:17.802Z,1.80
2019-01-09T13:57:36.082Z,0.93
2019-01-09T14:02:57.066Z,1.03
2019-01-09T14:08:17.533Z,0.93
2019-01-09T14:13:35.756Z,1.50
2019-01-09T14:18:55.663Z,0.73
2019-01-09T14:24:15.252Z,0.87
2019-01-09T14:29:34.052Z,0.87
2019-01-09T14:34:52.357Z,0.67
2019-01-09T14:40:13.044Z,0.77
2019-01-09T14:45:33.642Z,0.73
2019-01-09T14:50:52.616Z,0.60
2019-01-09T14:56:14.315Z,0.53
2019-01-09T15:01:32.185Z,0.60
2019-01-09T15:06:51.931Z,0.60
2019-01-09T15:12:11.537Z,0.70
2019-01-09T15:17:30.293Z,0.73
2019-01-09T15:22:49.006Z,0.53
2019-01-09T15:44:04.055Z,0.10
2019-01-09T15:49:22.542Z,0.85
2019-01-09T15:54:42.383Z,1.30
2019-01-09T16:00:02.117Z,0.67
2019-01-09T16:05:22.026Z,0.57
2019-01-09T16:11:30.856Z,0.63
2019-01-09T16:16:49.472Z,0.85
2019-01-09T16:22:09.216Z,1.05
2019-01-09T16:43:23.348Z,0.00
2019-01-09T16:48:42.118Z,1.10
2019-01-09T16:54:01.983Z,0.97
2019-01-09T16:59:21.652Z,1.20
2019-01-09T17:04:41.147Z,0.73
2019-01-09T17:10:01.390Z,0.63
2019-01-09T17:15:21.552Z,0.73
2019-01-09T17:20:40.502Z,1.12
2019-01-09T17:26:00.633Z,1.57
2019-01-09T17:31:19.716Z,1.90
2019-01-09T17:36:39.134Z,1.37
2019-01-09T17:41:59.294Z,0.70
2019-01-09T17:47:17.891Z,0.67
2019-01-09T17:52:37.061Z,0.73
2019-01-09T17:57:55.928Z,0.77
2019-01-09T18:03:16.167Z,0.67
2019-01-09T18:08:35.105Z,0.67
2019-01-09T18:13:54.083Z,0.67
2019-01-09T18:19:14.180Z,0.57
2019-01-09T18:24:33.653Z,2.33
2019-01-09T18:29:52.824Z,1.73
2019-01-09T18:35:41.011Z,2.30
2019-01-09T18:41:41.154Z,1.73
2019-01-09T18:47:33.543Z,1.60
2019-01-09T18:53:28.691Z,2.63
2019-01-09T18:58:49.173Z,3.30
2019-01-09T19:04:08.624Z,2.10
2019-01-09T19:09:28.684Z,2.10
2019-01-09T19:14:47.702Z,2.20
2019-01-09T19:20:08.046Z,1.67
2019-01-09T19:25:28.521Z,1.53
2019-01-09T19:30:48.751Z,1.60
2019-01-09T19:36:08.253Z,1.57
2019-01-09T19:41:28.786Z,1.57
2019-01-09T19:46:53.969Z,1.87
2019-01-09T19:52:15.280Z,1.47
2019-01-09T19:57:35.304Z,1.40
2019-01-09T20:02:54.562Z,0.00
